Time;durP1;ratioP1;P1;durP2;ratioP2;P2;SDS_P1;SDS_P2;PMS_P1;PMS_P2;Temp;Humidity;BMP_temperature;BMP_pressure;BME280_temperature;BME280_humidity;BME280_pressure;Samples;Min_cycle;Max_cycle;Signal;HPM_P1;HPM_P2
2023/06/30 00:01:19;;;;;;;8.02;3.47;;;16.40;99.90;;;;;;5073094;28;20017;-71
2023/06/30 00:03:45;;;;;;;10.98;3.53;;;16.30;99.90;;;;;;5073075;28;20077;-70
2023/06/30 00:06:11;;;;;;;12.20;4.07;;;16.30;99.90;;;;;;5072442;28;20123;-70
2023/06/30 00:08:36;;;;;;;8.60;4.07;;;16.30;99.90;;;;;;5061041;28;20016;-70
2023/06/30 00:11:02;;;;;;;12.13;4.03;;;16.20;99.90;;;;;;5072564;28;20443;-70
2023/06/30 00:13:27;;;;;;;13.82;4.43;;;16.20;99.90;;;;;;5073353;28;20020;-70
2023/06/30 00:15:54;;;;;;;11.55;4.10;;;16.10;99.90;;;;;;5072539;28;20071;-70
2023/06/30 00:18:20;;;;;;;12.65;4.10;;;16.10;99.90;;;;;;5071062;28;20025;-70
2023/06/30 00:20:45;;;;;;;8.23;3.60;;;16.00;99.90;;;;;;5073097;28;20111;-70
2023/06/30 00:23:13;;;;;;;10.57;4.18;;;16.00;99.90;;;;;;5072572;28;20039;-70
2023/06/30 00:25:39;;;;;;;13.88;4.15;;;15.90;99.90;;;;;;5072613;28;20052;-70
2023/06/30 00:28:04;;;;;;;14.13;3.80;;;15.90;99.90;;;;;;5072487;28;20500;-70
2023/06/30 00:30:30;;;;;;;12.70;4.18;;;15.80;99.90;;;;;;5070859;28;20028;-70
2023/06/30 00:32:55;;;;;;;10.00;3.42;;;15.80;99.90;;;;;;5070938;28;20090;-70
2023/06/30 00:35:21;;;;;;;10.50;3.33;;;15.70;99.90;;;;;;5072480;28;20093;-70
2023/06/30 00:37:46;;;;;;;10.82;2.80;;;15.60;99.90;;;;;;5072684;28;20029;-70
2023/06/30 00:40:14;;;;;;;12.27;3.35;;;15.60;99.90;;;;;;5072180;28;20028;-70
2023/06/30 00:42:39;;;;;;;10.82;3.25;;;15.50;99.90;;;;;;5070969;28;20017;-71
2023/06/30 00:45:06;;;;;;;8.60;2.80;;;15.50;99.90;;;;;;5070549;28;20040;-70
2023/06/30 00:47:32;;;;;;;9.55;3.45;;;15.40;99.90;;;;;;5072213;28;20063;-70
2023/06/30 00:49:58;;;;;;;10.43;3.20;;;15.40;99.90;;;;;;5072041;28;20033;-70
2023/06/30 00:52:24;;;;;;;8.60;3.10;;;15.30;99.90;;;;;;5072136;28;20133;-70
2023/06/30 00:54:49;;;;;;;9.70;3.72;;;15.30;99.90;;;;;;5071899;28;20532;-70
2023/06/30 00:57:15;;;;;;;9.70;3.03;;;15.20;99.90;;;;;;5072003;28;20029;-70
2023/06/30 00:59:41;;;;;;;12.35;3.10;;;15.10;99.90;;;;;;5071984;28;20077;-70
2023/06/30 01:02:14;;;;;;;8.13;2.50;;;15.10;99.90;;;;;;5071665;28;20111;-70
2023/06/30 01:05:06;;;;;;;11.35;3.35;;;15.10;99.90;;;;;;5071892;28;20091;-70
2023/06/30 01:07:42;;;;;;;8.97;2.80;;;15.00;99.90;;;;;;5071544;28;20503;-70
2023/06/30 01:10:25;;;;;;;12.60;3.05;;;15.00;99.90;;;;;;5071248;28;20028;-70
2023/06/30 01:12:51;;;;;;;13.18;2.75;;;14.90;99.90;;;;;;5071815;28;20015;-70
2023/06/30 01:15:18;;;;;;;10.18;2.70;;;14.90;99.90;;;;;;5071028;28;20039;-71
2023/06/30 01:17:59;;;;;;;11.88;2.67;;;14.80;99.90;;;;;;5072061;28;20025;-70
2023/06/30 01:20:29;;;;;;;9.07;3.53;;;14.80;99.90;;;;;;5072025;28;20024;-70
2023/06/30 01:23:17;;;;;;;14.25;3.10;;;14.70;99.90;;;;;;5071428;28;20017;-71
2023/06/30 01:25:45;;;;;;;9.70;2.58;;;14.60;99.90;;;;;;5071579;28;20114;-70
2023/06/30 01:28:12;;;;;;;9.57;2.50;;;14.60;99.90;;;;;;5071489;28;20024;-70
2023/06/30 01:30:38;;;;;;;11.45;2.80;;;14.50;99.90;;;;;;5071425;28;20433;-70
2023/06/30 01:33:04;;;;;;;7.22;2.47;;;14.50;99.90;;;;;;5070552;28;20024;-70
2023/06/30 01:35:29;;;;;;;10.30;2.20;;;14.40;99.90;;;;;;5072198;28;20443;-70
2023/06/30 01:37:56;;;;;;;12.00;2.75;;;14.40;99.90;;;;;;5071007;28;20449;-71
2023/06/30 01:40:22;;;;;;;12.25;2.55;;;14.40;99.90;;;;;;5071064;28;20025;-70
2023/06/30 01:42:52;;;;;;;8.85;2.08;;;14.30;99.90;;;;;;5071283;28;20027;-70
2023/06/30 01:45:19;;;;;;;9.68;2.60;;;14.30;99.90;;;;;;5070971;28;20072;-70
2023/06/30 01:47:45;;;;;;;11.65;2.55;;;14.20;99.90;;;;;;5071065;28;20025;-70
2023/06/30 01:50:11;;;;;;;11.38;2.53;;;14.20;99.90;;;;;;5070907;28;20531;-70
2023/06/30 01:52:37;;;;;;;10.35;2.30;;;14.20;99.90;;;;;;5071069;28;20386;-70
2023/06/30 01:55:03;;;;;;;13.15;2.75;;;14.20;99.90;;;;;;5070890;28;20025;-70
2023/06/30 01:57:28;;;;;;;9.27;2.47;;;14.20;99.90;;;;;;5071005;28;20031;-70
2023/06/30 01:59:54;;;;;;;12.00;2.50;;;14.10;99.90;;;;;;5070618;28;20036;-70
2023/06/30 02:02:21;;;;;;;9.60;2.67;;;14.10;99.90;;;;;;5070459;28;20127;-70
2023/06/30 02:04:46;;;;;;;7.03;2.35;;;14.00;99.90;;;;;;5065066;28;20059;-70
2023/06/30 02:07:12;;;;;;;11.85;2.33;;;14.10;99.90;;;;;;5067557;28;20467;-70
2023/06/30 02:09:37;;;;;;;6.50;1.98;;;14.00;99.90;;;;;;5070917;28;20112;-70
2023/06/30 02:12:03;;;;;;;10.68;2.70;;;14.00;99.90;;;;;;5070270;28;20052;-70
2023/06/30 02:14:29;;;;;;;11.75;2.50;;;13.90;99.90;;;;;;5070887;28;20036;-70
2023/06/30 02:16:54;;;;;;;9.48;2.65;;;13.80;99.90;;;;;;5068978;28;20032;-71
2023/06/30 02:19:23;;;;;;;15.82;2.83;;;13.70;99.90;;;;;;5070667;28;20027;-70
2023/06/30 02:21:50;;;;;;;9.90;2.53;;;13.60;99.90;;;;;;5070403;28;20016;-70
2023/06/30 02:24:16;;;;;;;10.55;2.85;;;13.60;99.90;;;;;;5070486;28;20116;-71
2023/06/30 02:26:41;;;;;;;9.13;2.60;;;13.50;99.90;;;;;;5070880;28;20099;-70
2023/06/30 02:29:07;;;;;;;8.38;2.78;;;13.40;99.90;;;;;;5070477;28;20032;-70
2023/06/30 02:31:32;;;;;;;11.68;2.85;;;13.30;99.90;;;;;;5070348;28;20085;-70
2023/06/30 02:33:58;;;;;;;8.88;2.40;;;13.30;99.90;;;;;;5070233;28;20036;-70
2023/06/30 02:36:23;;;;;;;8.52;2.75;;;13.20;99.90;;;;;;5070443;28;20029;-70
2023/06/30 02:38:49;;;;;;;11.57;3.38;;;13.20;99.90;;;;;;5070277;28;20052;-70
2023/06/30 02:41:15;;;;;;;14.25;3.33;;;13.10;99.90;;;;;;5069018;28;20028;-70
2023/06/30 02:43:42;;;;;;;9.18;2.33;;;13.00;99.90;;;;;;5070323;28;20024;-70
2023/06/30 02:46:08;;;;;;;6.40;2.63;;;12.90;99.90;;;;;;5069954;28;20102;-70
2023/06/30 02:48:33;;;;;;;9.95;2.83;;;12.90;99.90;;;;;;5070463;28;20537;-70
2023/06/30 02:50:59;;;;;;;11.35;2.78;;;12.80;99.90;;;;;;5070055;28;20643;-70
2023/06/30 02:53:24;;;;;;;9.85;3.20;;;12.80;99.90;;;;;;5070311;28;20095;-70
2023/06/30 02:55:50;;;;;;;10.02;3.25;;;12.70;99.90;;;;;;5070017;28;20044;-71
2023/06/30 02:58:16;;;;;;;9.48;2.55;;;12.70;99.90;;;;;;5070332;28;20074;-70
2023/06/30 03:00:41;;;;;;;6.50;2.80;;;12.60;99.90;;;;;;5070469;28;20478;-70
2023/06/30 03:03:07;;;;;;;14.95;3.20;;;12.60;99.90;;;;;;5068478;28;20474;-70
2023/06/30 03:05:35;;;;;;;11.02;2.60;;;12.60;99.90;;;;;;5070323;28;20399;-70
2023/06/30 03:08:03;;;;;;;15.77;3.40;;;12.50;99.90;;;;;;5070260;28;20033;-70
2023/06/30 03:10:28;;;;;;;6.65;3.03;;;12.50;99.90;;;;;;5070139;28;20021;-70
2023/06/30 03:12:54;;;;;;;11.23;3.42;;;12.50;99.90;;;;;;5070347;28;20086;-71
2023/06/30 03:15:20;;;;;;;9.07;3.03;;;12.40;99.90;;;;;;5070174;28;20386;-70
2023/06/30 03:17:45;;;;;;;9.30;2.95;;;12.40;99.90;;;;;;5070143;28;20124;-70
2023/06/30 03:20:12;;;;;;;14.50;3.65;;;12.40;99.90;;;;;;5069533;28;20486;-70
2023/06/30 03:22:39;;;;;;;8.68;2.95;;;12.30;99.90;;;;;;5070350;28;20032;-70
2023/06/30 03:25:06;;;;;;;11.18;2.70;;;12.30;99.90;;;;;;5068287;28;20059;-70
2023/06/30 03:27:31;;;;;;;7.75;2.63;;;12.30;99.90;;;;;;5070076;28;20017;-70
2023/06/30 03:29:57;;;;;;;6.22;2.92;;;12.30;99.90;;;;;;5077292;28;20055;-70
2023/06/30 03:32:22;;;;;;;10.73;3.05;;;12.30;99.90;;;;;;5050183;28;20040;-70
2023/06/30 03:34:48;;;;;;;11.85;3.72;;;12.20;99.90;;;;;;5070225;28;20129;-70
2023/06/30 03:37:13;;;;;;;8.93;3.08;;;12.20;99.90;;;;;;5070009;28;20025;-70
2023/06/30 03:39:39;;;;;;;9.13;2.88;;;12.20;99.90;;;;;;5072410;28;20020;-70
2023/06/30 03:42:05;;;;;;;11.13;3.28;;;12.20;99.90;;;;;;5072726;28;20348;-70
2023/06/30 03:44:30;;;;;;;8.98;3.03;;;12.10;99.90;;;;;;5073377;28;20076;-70
2023/06/30 03:46:56;;;;;;;6.50;3.20;;;12.10;99.90;;;;;;5072970;28;20110;-70
2023/06/30 03:49:22;;;;;;;11.20;2.92;;;12.10;99.90;;;;;;5073468;28;20028;-70
2023/06/30 03:51:47;;;;;;;8.63;3.20;;;12.10;99.90;;;;;;5073515;28;20505;-70
2023/06/30 03:54:13;;;;;;;7.70;2.72;;;12.00;99.90;;;;;;5072996;28;20104;-70
2023/06/30 03:56:38;;;;;;;12.15;4.53;;;12.00;99.90;;;;;;5073232;28;20028;-70
2023/06/30 03:59:04;;;;;;;10.82;3.47;;;11.90;99.90;;;;;;5072924;28;20029;-70
2023/06/30 04:01:33;;;;;;;16.45;3.78;;;11.90;99.90;;;;;;5071032;28;20021;-70
2023/06/30 04:03:59;;;;;;;5.75;3.22;;;11.90;99.90;;;;;;5052915;28;20088;-70
2023/06/30 04:06:25;;;;;;;8.30;3.20;;;11.90;99.90;;;;;;5071858;28;20033;-70
2023/06/30 04:08:51;;;;;;;9.60;4.05;;;11.90;99.90;;;;;;5072690;28;20542;-70
2023/06/30 04:11:17;;;;;;;9.25;3.75;;;11.90;99.90;;;;;;5073591;28;20031;-70
2023/06/30 04:13:42;;;;;;;12.07;3.55;;;11.90;99.90;;;;;;5073811;28;20033;-70
2023/06/30 04:16:08;;;;;;;8.15;4.68;;;12.00;99.90;;;;;;5071790;28;20128;-70
2023/06/30 04:18:34;;;;;;;8.15;3.88;;;12.00;99.90;;;;;;5072688;28;20055;-70
2023/06/30 04:20:59;;;;;;;11.75;3.80;;;12.00;99.90;;;;;;5072601;28;20408;-71
2023/06/30 04:23:25;;;;;;;7.35;4.35;;;12.00;99.90;;;;;;5071802;28;20108;-70
2023/06/30 04:25:50;;;;;;;12.18;3.90;;;12.00;99.90;;;;;;5071953;28;20052;-71
2023/06/30 04:28:16;;;;;;;9.40;3.75;;;12.00;99.90;;;;;;5072936;28;20298;-70
2023/06/30 04:30:42;;;;;;;11.02;3.83;;;12.10;99.90;;;;;;5072677;28;20052;-70
2023/06/30 04:33:07;;;;;;;11.20;4.57;;;12.10;99.90;;;;;;5072275;28;20032;-70
2023/06/30 04:35:33;;;;;;;9.80;4.15;;;12.10;99.90;;;;;;5072558;28;20513;-70
2023/06/30 04:37:59;;;;;;;10.63;3.80;;;12.10;99.90;;;;;;5072124;28;20028;-70
2023/06/30 04:40:25;;;;;;;10.70;4.40;;;12.20;99.90;;;;;;5072746;28;20029;-70
2023/06/30 04:42:50;;;;;;;8.23;3.95;;;12.20;99.90;;;;;;5072228;28;20021;-71
2023/06/30 04:45:16;;;;;;;8.65;4.07;;;12.20;99.90;;;;;;5072437;28;20044;-71
2023/06/30 04:47:41;;;;;;;10.07;4.10;;;12.30;99.90;;;;;;5072370;28;20043;-71
2023/06/30 04:50:07;;;;;;;9.55;3.95;;;12.40;99.90;;;;;;5070979;28;20032;-70
2023/06/30 04:52:33;;;;;;;9.90;4.10;;;12.50;99.90;;;;;;5072370;28;20025;-71
2023/06/30 04:54:58;;;;;;;10.07;4.00;;;12.50;99.90;;;;;;5070428;28;20193;-71
2023/06/30 04:57:24;;;;;;;9.18;4.72;;;12.70;99.90;;;;;;5071114;28;20482;-71
2023/06/30 04:59:52;;;;;;;14.50;3.53;;;13.00;99.90;;;;;;5070535;28;20025;-71
2023/06/30 05:02:18;;;;;;;9.13;3.28;;;13.50;99.90;;;;;;5071753;28;20036;-71
2023/06/30 05:04:44;;;;;;;7.03;2.80;;;14.10;99.90;;;;;;5071984;28;20041;-70
2023/06/30 05:07:10;;;;;;;8.73;2.10;;;14.70;99.90;;;;;;5071487;28;20025;-70
2023/06/30 05:09:38;;;;;;;6.97;2.33;;;15.20;99.90;;;;;;5072036;28;20389;-71
2023/06/30 05:12:04;;;;;;;8.55;2.65;;;15.70;99.90;;;;;;5071295;28;20020;-70
2023/06/30 05:14:30;;;;;;;7.78;1.88;;;16.10;99.90;;;;;;5071714;28;20062;-71
2023/06/30 05:16:55;;;;;;;4.95;1.70;;;16.40;99.90;;;;;;5071177;28;20029;-72
2023/06/30 05:19:21;;;;;;;9.38;2.55;;;16.80;99.90;;;;;;5071814;28;20020;-71
2023/06/30 05:21:46;;;;;;;7.72;1.90;;;17.00;99.90;;;;;;5071618;28;20108;-70
2023/06/30 05:24:12;;;;;;;10.68;2.20;;;17.20;99.90;;;;;;5070760;28;20489;-71
2023/06/30 05:26:38;;;;;;;5.90;1.60;;;17.40;99.90;;;;;;5071639;28;20078;-71
2023/06/30 05:29:05;;;;;;;6.78;1.70;;;17.40;99.90;;;;;;5071256;28;20021;-69
2023/06/30 05:31:31;;;;;;;7.70;2.28;;;17.60;99.90;;;;;;5071350;28;20020;-71
2023/06/30 05:33:57;;;;;;;6.07;1.73;;;17.60;99.90;;;;;;5071222;28;20020;-71
2023/06/30 05:36:22;;;;;;;6.45;2.00;;;17.80;99.90;;;;;;5069953;28;20505;-71
2023/06/30 05:38:49;;;;;;;5.72;1.63;;;17.90;99.90;;;;;;5070316;28;20028;-71
2023/06/30 05:41:15;;;;;;;6.70;1.70;;;18.10;99.90;;;;;;5071121;28;20025;-71
2023/06/30 05:43:41;;;;;;;7.95;1.70;;;18.10;99.90;;;;;;5071073;28;20044;-71
2023/06/30 05:46:06;;;;;;;7.25;1.58;;;18.20;99.90;;;;;;5070779;28;20232;-70
2023/06/30 05:48:32;;;;;;;6.28;1.83;;;18.30;99.90;;;;;;5071181;28;20104;-71
2023/06/30 05:50:57;;;;;;;6.15;2.20;;;18.40;99.90;;;;;;5070836;28;20383;-71
2023/06/30 05:53:23;;;;;;;9.30;1.70;;;18.40;99.90;;;;;;5071232;28;20029;-71
2023/06/30 05:55:48;;;;;;;8.55;2.17;;;18.30;99.90;;;;;;5070654;28;20037;-71
2023/06/30 05:58:14;;;;;;;4.28;1.85;;;18.20;99.90;;;;;;5070976;28;20105;-70
2023/06/30 06:00:39;;;;;;;5.78;2.30;;;18.00;99.90;;;;;;5053028;28;20021;-69
2023/06/30 06:03:05;;;;;;;7.55;2.00;;;17.90;99.90;;;;;;5057740;28;20020;-70
2023/06/30 06:05:30;;;;;;;6.38;3.10;;;17.80;99.90;;;;;;5070918;28;20036;-70
2023/06/30 06:07:56;;;;;;;4.95;1.55;;;17.70;99.90;;;;;;5070513;28;20029;-71
2023/06/30 06:10:21;;;;;;;5.05;2.33;;;17.60;99.90;;;;;;5070647;28;20033;-70
2023/06/30 06:12:51;;;;;;;8.05;2.70;;;17.60;99.90;;;;;;5070916;28;20032;-70
2023/06/30 06:15:17;;;;;;;5.32;1.98;;;17.50;99.90;;;;;;5070364;28;20183;-71
2023/06/30 06:17:42;;;;;;;8.32;2.22;;;17.60;99.90;;;;;;5070956;28;20107;-70
2023/06/30 06:20:08;;;;;;;9.38;2.17;;;17.60;99.90;;;;;;5070375;28;20735;-70
2023/06/30 06:22:34;;;;;;;10.35;1.83;;;17.70;99.90;;;;;;5070679;28;20090;-71
2023/06/30 06:24:59;;;;;;;8.55;2.40;;;17.70;99.90;;;;;;5070197;28;20048;-70
2023/06/30 06:27:25;;;;;;;5.22;1.70;;;17.80;99.90;;;;;;5070487;28;20028;-70
2023/06/30 06:29:50;;;;;;;6.53;1.63;;;17.90;99.90;;;;;;5070335;28;20029;-71
2023/06/30 06:32:18;;;;;;;4.20;1.77;;;17.90;99.90;;;;;;5070625;28;20017;-70
2023/06/30 06:34:44;;;;;;;11.93;2.08;;;17.90;99.90;;;;;;5070714;28;20369;-70
2023/06/30 06:37:10;;;;;;;8.20;1.35;;;17.90;99.90;;;;;;5070356;28;20085;-71
2023/06/30 06:39:35;;;;;;;3.30;0.80;;;17.90;99.90;;;;;;5069237;28;20025;-70
2023/06/30 06:42:01;;;;;;;6.72;0.95;;;17.90;99.90;;;;;;5070282;28;20021;-70
2023/06/30 06:44:26;;;;;;;5.18;1.20;;;17.90;99.90;;;;;;5071421;28;20075;-70
2023/06/30 06:47:30;;;;;;;4.32;0.88;;;17.90;99.90;;;;;;5070490;28;20403;-70
2023/06/30 06:49:56;;;;;;;2.67;0.80;;;17.90;99.90;;;;;;5069869;28;20024;-70
2023/06/30 06:52:21;;;;;;;4.38;1.10;;;18.00;99.90;;;;;;5070516;28;20032;-70
2023/06/30 06:54:47;;;;;;;4.40;1.25;;;18.00;99.90;;;;;;5070140;28;20082;-70
2023/06/30 06:57:12;;;;;;;7.45;0.90;;;18.10;99.90;;;;;;5067972;28;20033;-70
2023/06/30 06:59:38;;;;;;;4.35;0.60;;;18.10;99.90;;;;;;5061676;28;20047;-70
2023/06/30 07:02:03;;;;;;;4.75;0.70;;;18.20;99.90;;;;;;5070125;28;20024;-70
2023/06/30 07:04:29;;;;;;;4.15;0.52;;;18.20;99.90;;;;;;5070644;28;20497;-70
2023/06/30 07:06:54;;;;;;;3.40;1.10;;;18.30;99.90;;;;;;5069714;28;20040;-70
2023/06/30 07:09:20;;;;;;;3.22;0.50;;;18.40;99.90;;;;;;5070803;28;20025;-70
2023/06/30 07:11:45;;;;;;;4.95;0.40;;;18.40;99.90;;;;;;5070127;28;20075;-70
2023/06/30 07:14:11;;;;;;;3.13;0.70;;;18.40;99.90;;;;;;5071671;28;20025;-70
2023/06/30 07:16:36;;;;;;;2.95;0.60;;;18.50;99.90;;;;;;5074112;28;20044;-70
2023/06/30 07:19:03;;;;;;;4.93;0.60;;;18.60;99.90;;;;;;5089329;28;20497;-70
2023/06/30 07:21:28;;;;;;;4.93;0.50;;;18.60;99.90;;;;;;5074344;28;20033;-70
2023/06/30 07:23:54;;;;;;;4.25;0.50;;;18.70;99.90;;;;;;5073680;28;20044;-71
2023/06/30 07:26:19;;;;;;;3.78;0.68;;;18.80;99.90;;;;;;5073719;28;20057;-70
2023/06/30 07:28:47;;;;;;;4.03;0.43;;;18.90;99.90;;;;;;5073890;28;20501;-70
2023/06/30 07:31:12;;;;;;;3.85;0.50;;;18.90;99.90;;;;;;5072283;28;20031;-70
2023/06/30 07:33:38;;;;;;;3.33;0.75;;;19.00;99.90;;;;;;5074438;28;20028;-70
2023/06/30 07:36:03;;;;;;;4.13;0.50;;;19.10;99.90;;;;;;5073427;28;20049;-70
2023/06/30 07:38:29;;;;;;;5.43;0.85;;;19.00;99.90;;;;;;5073484;28;20029;-70
2023/06/30 07:40:54;;;;;;;2.88;0.40;;;19.20;99.90;;;;;;5073259;28;20111;-70
2023/06/30 07:43:20;;;;;;;3.33;0.43;;;19.20;99.90;;;;;;5073520;28;20081;-70
2023/06/30 07:45:45;;;;;;;2.25;0.40;;;19.30;99.90;;;;;;5073531;28;20486;-70
2023/06/30 07:48:11;;;;;;;3.50;0.40;;;19.30;99.90;;;;;;5073217;28;20020;-70
2023/06/30 07:50:36;;;;;;;3.75;0.30;;;19.30;99.90;;;;;;5073605;28;20033;-70
2023/06/30 07:53:07;;;;;;;3.53;0.47;;;19.20;99.90;;;;;;5072982;28;20039;-70
2023/06/30 07:55:33;;;;;;;2.67;0.40;;;19.30;99.90;;;;;;5073518;28;20028;-70
2023/06/30 07:57:58;;;;;;;4.78;0.50;;;19.40;99.90;;;;;;5066500;28;20453;-71
2023/06/30 08:00:28;;;;;;;2.75;0.40;;;19.40;99.90;;;;;;5073690;28;20037;-70
2023/06/30 08:02:54;;;;;;;2.15;0.40;;;19.50;99.90;;;;;;5071397;28;20134;-71
2023/06/30 08:05:21;;;;;;;0.88;0.20;;;19.50;99.90;;;;;;5073428;28;20040;-70
2023/06/30 08:07:47;;;;;;;3.80;0.30;;;19.60;99.90;;;;;;5073143;28;20017;-70
2023/06/30 08:10:12;;;;;;;3.58;0.40;;;19.60;99.90;;;;;;5072608;28;20027;-70
2023/06/30 08:12:38;;;;;;;2.42;0.50;;;19.70;99.90;;;;;;5073083;28;20025;-70
2023/06/30 08:15:04;;;;;;;2.28;0.40;;;19.90;99.90;;;;;;5072767;28;20032;-70
2023/06/30 08:17:30;;;;;;;1.75;0.40;;;20.00;99.90;;;;;;5073264;28;20051;-70
2023/06/30 08:19:55;;;;;;;2.72;0.32;;;20.10;99.20;;;;;;5072697;28;20021;-71
2023/06/30 08:22:21;;;;;;;2.90;0.40;;;20.20;98.80;;;;;;5073363;28;20078;-70
2023/06/30 08:24:47;;;;;;;3.75;0.60;;;20.10;98.40;;;;;;5072651;28;20060;-70
2023/06/30 08:27:13;;;;;;;1.92;0.40;;;20.10;98.10;;;;;;5072409;28;20476;-71
2023/06/30 08:29:39;;;;;;;6.18;0.40;;;20.10;97.90;;;;;;5073199;28;20044;-70
2023/06/30 08:32:05;;;;;;;3.33;0.40;;;20.20;98.00;;;;;;5072378;28;20060;-71
2023/06/30 08:34:31;;;;;;;1.95;0.30;;;20.20;97.70;;;;;;5072811;28;20116;-70
2023/06/30 08:36:56;;;;;;;3.97;0.40;;;20.30;97.40;;;;;;5071055;28;20504;-70
2023/06/30 08:39:23;;;;;;;3.28;0.50;;;20.40;97.20;;;;;;5072626;28;20107;-70
2023/06/30 08:41:54;;;;;;;2.05;0.40;;;20.50;96.80;;;;;;5072043;28;20521;-71
2023/06/30 08:44:31;;;;;;;3.83;0.40;;;20.50;96.40;;;;;;5072596;28;20036;-71
2023/06/30 08:47:00;;;;;;;2.55;0.40;;;20.60;96.10;;;;;;5072294;28;20471;-70
2023/06/30 08:49:27;;;;;;;3.10;0.50;;;20.70;95.60;;;;;;5072354;28;20089;-71
2023/06/30 08:51:56;;;;;;;3.28;0.40;;;20.80;95.50;;;;;;5071806;28;20025;-70
2023/06/30 08:54:28;;;;;;;4.22;0.43;;;20.90;94.80;;;;;;5072443;28;20567;-70
2023/06/30 08:56:54;;;;;;;2.97;0.50;;;20.90;94.40;;;;;;5063833;28;20535;-70
2023/06/30 08:59:20;;;;;;;3.47;0.40;;;20.90;94.20;;;;;;5072391;28;20119;-70
2023/06/30 09:01:46;;;;;;;3.33;0.40;;;21.00;93.70;;;;;;5072168;28;20024;-70
2023/06/30 09:04:12;;;;;;;5.05;0.50;;;21.00;93.50;;;;;;5071485;28;20378;-70
2023/06/30 09:06:45;;;;;;;1.17;0.30;;;21.10;93.00;;;;;;5072162;28;20048;-70
2023/06/30 09:09:21;;;;;;;2.25;0.45;;;21.20;92.80;;;;;;5071825;28;20021;-70
2023/06/30 09:11:48;;;;;;;1.48;0.40;;;21.20;92.50;;;;;;5072098;28;20036;-70
2023/06/30 09:14:14;;;;;;;6.82;0.50;;;21.20;91.70;;;;;;5071211;28;20025;-70
2023/06/30 09:16:40;;;;;;;2.55;0.70;;;21.20;91.60;;;;;;5072313;28;20063;-70
2023/06/30 09:19:06;;;;;;;4.22;0.70;;;21.30;91.80;;;;;;5071279;28;20025;-70
2023/06/30 09:21:32;;;;;;;1.73;0.30;;;21.50;91.50;;;;;;5072846;28;20399;-70
2023/06/30 09:23:58;;;;;;;1.77;0.30;;;21.70;91.90;;;;;;5070283;28;20024;-72
2023/06/30 09:26:23;;;;;;;1.98;0.30;;;21.90;91.50;;;;;;5071689;28;20393;-70
2023/06/30 09:28:54;;;;;;;2.17;0.50;;;22.00;90.80;;;;;;5071656;28;20024;-71
2023/06/30 09:31:28;;;;;;;2.38;0.40;;;22.00;90.10;;;;;;5071314;28;20100;-71
2023/06/30 09:34:05;;;;;;;2.78;0.40;;;22.10;89.70;;;;;;5071033;28;20466;-70
2023/06/30 09:36:31;;;;;;;2.92;0.50;;;22.10;89.20;;;;;;5070949;28;20104;-70
2023/06/30 09:38:57;;;;;;;2.25;0.40;;;22.30;88.70;;;;;;5070797;28;20095;-70
2023/06/30 09:41:26;;;;;;;2.45;0.50;;;22.30;87.70;;;;;;5071425;28;20021;-71
2023/06/30 09:43:58;;;;;;;4.00;0.60;;;22.40;88.10;;;;;;5070900;28;20071;-70
2023/06/30 09:46:24;;;;;;;1.83;0.35;;;22.60;86.20;;;;;;5069768;28;20075;-71
2023/06/30 09:48:54;;;;;;;4.60;0.50;;;22.60;86.90;;;;;;5070704;28;20068;-70
2023/06/30 09:51:23;;;;;;;4.45;0.50;;;22.70;84.70;;;;;;5071324;28;20048;-70
2023/06/30 09:53:54;;;;;;;3.15;0.40;;;22.70;83.60;;;;;;5065450;28;20434;-70
2023/06/30 09:56:23;;;;;;;4.10;0.65;;;22.80;83.90;;;;;;5070713;28;20029;-70
2023/06/30 09:58:55;;;;;;;2.92;0.40;;;22.90;84.60;;;;;;5070515;28;20462;-70
2023/06/30 10:01:22;;;;;;;3.53;0.50;;;23.00;85.10;;;;;;5071072;28;20036;-70
2023/06/30 10:03:50;;;;;;;2.55;0.40;;;23.00;84.50;;;;;;5070916;28;20043;-70
2023/06/30 10:06:21;;;;;;;2.63;0.43;;;22.90;84.20;;;;;;5070724;28;20020;-71
2023/06/30 10:08:49;;;;;;;1.33;0.50;;;22.90;83.60;;;;;;5070990;28;20386;-70
2023/06/30 10:11:14;;;;;;;4.05;1.17;;;22.70;83.30;;;;;;5070959;28;20036;-70
2023/06/30 10:13:42;;;;;;;2.70;0.60;;;22.70;82.60;;;;;;5070694;28;20039;-70
2023/06/30 10:16:09;;;;;;;4.45;0.82;;;22.70;82.40;;;;;;5070286;28;20025;-70
2023/06/30 10:18:45;;;;;;;3.33;0.70;;;22.60;82.10;;;;;;5070730;28;20027;-71
2023/06/30 10:21:11;;;;;;;3.45;0.80;;;22.60;82.50;;;;;;5070260;28;20086;-70
2023/06/30 10:23:39;;;;;;;2.08;0.40;;;22.60;82.50;;;;;;5070641;28;20032;-70
2023/06/30 10:26:06;;;;;;;1.95;0.60;;;22.80;82.50;;;;;;5069922;28;20127;-70
2023/06/30 10:28:35;;;;;;;3.88;0.60;;;22.90;82.40;;;;;;5070675;28;20028;-70
2023/06/30 10:31:00;;;;;;;2.92;0.47;;;23.00;82.30;;;;;;5070239;28;20020;-70
2023/06/30 10:33:26;;;;;;;3.10;0.60;;;23.00;82.20;;;;;;5070637;28;20078;-70
2023/06/30 10:35:52;;;;;;;3.47;0.77;;;22.90;82.00;;;;;;5070286;28;20028;-70
2023/06/30 10:38:18;;;;;;;2.75;0.60;;;23.00;81.70;;;;;;5070689;28;20023;-70
2023/06/30 10:40:43;;;;;;;3.28;0.88;;;23.10;80.70;;;;;;5070531;28;20020;-70
2023/06/30 10:43:10;;;;;;;3.65;1.10;;;23.30;80.40;;;;;;5070613;28;20035;-70
2023/06/30 10:46:06;;;;;;;4.03;0.70;;;23.50;79.80;;;;;;5070576;28;20025;-70
2023/06/30 10:48:32;;;;;;;2.63;0.50;;;23.60;79.10;;;;;;5071621;28;20027;-70
2023/06/30 10:50:57;;;;;;;5.47;0.60;;;23.70;79.00;;;;;;5074498;28;20410;-71
2023/06/30 10:53:25;;;;;;;4.07;0.60;;;23.70;78.30;;;;;;5074049;28;20070;-70
2023/06/30 10:55:56;;;;;;;2.85;0.50;;;23.60;77.70;;;;;;5074594;28;20025;-70
2023/06/30 10:58:26;;;;;;;3.35;0.57;;;23.50;77.70;;;;;;5073394;28;20139;-70
2023/06/30 11:01:05;;;;;;;1.55;0.50;;;23.30;78.10;;;;;;5074112;28;20024;-71
2023/06/30 11:04:16;;;;;;;2.33;0.60;;;23.20;79.00;;;;;;5074398;28;20020;-69
2023/06/30 11:06:45;;;;;;;3.22;0.40;;;23.30;80.00;;;;;;5074358;28;20502;-70
2023/06/30 11:09:11;;;;;;;2.88;0.65;;;23.40;79.80;;;;;;5074032;28;20016;-70
2023/06/30 11:11:52;;;;;;;1.92;0.60;;;23.40;79.00;;;;;;5074623;28;20036;-70
2023/06/30 11:14:33;;;;;;;2.35;0.80;;;23.20;79.20;;;;;;5074078;28;20074;-70
2023/06/30 11:17:06;;;;;;;2.03;0.65;;;23.10;79.90;;;;;;5072395;28;20089;-70
2023/06/30 11:19:32;;;;;;;2.80;0.50;;;23.10;79.50;;;;;;5072880;28;20064;-70
2023/06/30 11:22:34;;;;;;;3.10;0.60;;;23.10;80.60;;;;;;5073557;28;20075;-70
2023/06/30 11:25:12;;;;;;;3.53;0.50;;;23.30;78.80;;;;;;5073366;28;20048;-70
2023/06/30 11:27:39;;;;;;;2.97;0.50;;;23.30;78.40;;;;;;5072844;28;20064;-70
2023/06/30 11:30:06;;;;;;;1.48;0.50;;;23.40;78.60;;;;;;5073642;28;20040;-70
2023/06/30 11:32:35;;;;;;;2.83;0.50;;;23.50;78.10;;;;;;5073927;28;20059;-70
2023/06/30 11:35:01;;;;;;;4.85;0.75;;;23.70;77.50;;;;;;5072431;28;20044;-70
2023/06/30 11:37:29;;;;;;;2.80;0.73;;;23.80;77.30;;;;;;5074259;28;20032;-70
2023/06/30 11:39:57;;;;;;;2.60;0.50;;;24.00;76.80;;;;;;5073538;28;20020;-70
2023/06/30 11:42:23;;;;;;;2.63;0.60;;;24.10;75.60;;;;;;5073631;28;20103;-70
2023/06/30 11:44:49;;;;;;;2.63;0.57;;;24.20;75.80;;;;;;5073145;28;20135;-70
2023/06/30 11:47:18;;;;;;;3.22;0.60;;;24.20;75.40;;;;;;5072656;28;20055;-70
2023/06/30 11:49:48;;;;;;;4.13;0.70;;;24.40;74.90;;;;;;5072226;28;20132;-70
2023/06/30 11:52:15;;;;;;;2.42;0.50;;;24.70;74.90;;;;;;5067627;28;20470;-70
2023/06/30 11:54:41;;;;;;;2.85;0.90;;;24.90;74.60;;;;;;5073309;28;20031;-70
2023/06/30 11:57:08;;;;;;;8.18;0.70;;;25.00;72.50;;;;;;5073847;28;20470;-70
2023/06/30 11:59:33;;;;;;;2.25;0.68;;;25.10;72.40;;;;;;5074637;28;20359;-70
2023/06/30 12:02:02;;;;;;;4.60;0.90;;;25.20;71.20;;;;;;5072547;28;20027;-70
2023/06/30 12:04:33;;;;;;;4.30;0.85;;;25.20;72.40;;;;;;5073398;28;20039;-70
2023/06/30 12:07:05;;;;;;;6.20;0.93;;;25.20;71.10;;;;;;5071923;28;20107;-70
2023/06/30 12:09:34;;;;;;;4.78;0.70;;;25.30;71.10;;;;;;5072321;28;20505;-70
2023/06/30 12:12:03;;;;;;;4.10;0.70;;;25.40;70.60;;;;;;5072659;28;20108;-70
2023/06/30 12:14:28;;;;;;;3.58;0.60;;;25.60;70.60;;;;;;5073424;28;20063;-71
2023/06/30 12:16:54;;;;;;;6.32;0.60;;;25.60;69.60;;;;;;5071593;28;20048;-70
2023/06/30 12:19:27;;;;;;;3.28;0.70;;;25.50;68.80;;;;;;5073416;28;20024;-71
2023/06/30 12:22:07;;;;;;;3.08;0.50;;;25.20;67.80;;;;;;5073009;28;20025;-71
2023/06/30 12:24:34;;;;;;;8.52;0.70;;;25.30;69.40;;;;;;5053055;28;20048;-71
2023/06/30 12:27:03;;;;;;;1.95;0.70;;;25.40;69.90;;;;;;5052718;28;20094;-71
2023/06/30 12:29:30;;;;;;;3.42;0.65;;;25.60;69.10;;;;;;5056169;28;20029;-71
2023/06/30 12:31:56;;;;;;;3.20;0.65;;;25.60;67.50;;;;;;5072134;28;20566;-71
2023/06/30 12:34:31;;;;;;;3.38;0.70;;;25.50;67.70;;;;;;5071262;28;20119;-70
2023/06/30 12:36:57;;;;;;;2.60;0.90;;;25.30;68.30;;;;;;5072479;28;20028;-70
2023/06/30 12:39:23;;;;;;;8.73;0.60;;;25.10;67.10;;;;;;5072701;28;20055;-70
2023/06/30 12:41:48;;;;;;;2.17;0.40;;;24.90;68.20;;;;;;5072007;28;20406;-70
2023/06/30 12:44:14;;;;;;;3.92;0.80;;;24.70;68.70;;;;;;5072248;28;20078;-71
2023/06/30 12:46:41;;;;;;;1.70;0.50;;;24.70;68.40;;;;;;5072156;28;20032;-70